createdAt,value
2018-05-16T00:00:39.982Z,56.93
2018-05-16T00:03:08.469Z,56.44
2018-05-16T00:05:36.963Z,57.72
2018-05-16T00:08:05.438Z,57.12
2018-05-16T00:10:34.675Z,57.81
2018-05-16T00:13:03.881Z,57.02
2018-05-16T00:15:32.601Z,57.48
2018-05-16T00:18:01.777Z,57.12
2018-05-16T00:20:38.777Z,56.66
2018-05-16T00:23:07.255Z,56.74
2018-05-16T00:25:35.689Z,57.08
2018-05-16T00:28:04.158Z,57.55
2018-05-16T00:30:33.411Z,57.37
2018-05-16T00:33:04.207Z,57.55
2018-05-16T00:35:32.871Z,57.18
2018-05-16T00:38:01.355Z,57.16
2018-05-16T00:40:30.533Z,58.14
2018-05-16T00:42:59.029Z,59.02
2018-05-16T00:45:27.470Z,58.44
2018-05-16T00:47:55.937Z,58.74
2018-05-16T00:50:24.417Z,58.21
2018-05-16T00:52:52.899Z,57.96
2018-05-16T00:55:21.392Z,58.28
2018-05-16T00:57:50.065Z,58.56
2018-05-16T01:00:18.575Z,58.30
2018-05-16T01:02:47.086Z,58.77
2018-05-16T01:05:15.544Z,59.83
2018-05-16T01:07:44.719Z,60.23
2018-05-16T01:10:13.223Z,60.49
2018-05-16T01:12:41.761Z,61.70
2018-05-16T01:15:10.279Z,64.78
2018-05-16T01:17:39.494Z,63.84
2018-05-16T01:20:07.948Z,61.92
2018-05-16T01:22:36.537Z,66.25
2018-05-16T01:25:05.021Z,67.83
2018-05-16T01:27:34.269Z,67.77
2018-05-16T01:30:02.742Z,66.39
2018-05-16T01:32:31.284Z,68.04
2018-05-16T01:34:59.742Z,67.65
2018-05-16T01:37:28.538Z,69.75
2018-05-16T01:39:57.011Z,67.55
2018-05-16T01:42:25.471Z,68.20
2018-05-16T01:44:53.929Z,64.98
2018-05-16T01:47:22.595Z,62.51
2018-05-16T01:49:51.866Z,66.20
2018-05-16T01:52:20.310Z,63.88
2018-05-16T01:54:49.684Z,65.92
2018-05-16T01:57:18.151Z,64.18
2018-05-16T01:59:46.572Z,65.02
2018-05-16T02:02:15.221Z,68.23
2018-05-16T02:04:43.858Z,67.79
2018-05-16T02:07:12.305Z,67.89
2018-05-16T02:09:41.698Z,69.53
2018-05-16T02:12:10.234Z,66.93
2018-05-16T02:14:38.821Z,69.84
2018-05-16T02:17:07.300Z,70.06
2018-05-16T02:19:35.887Z,69.26
2018-05-16T02:22:04.381Z,65.94
2018-05-16T02:24:32.813Z,68.83
2018-05-16T02:27:01.266Z,69.61
2018-05-16T02:29:29.728Z,69.72
2018-05-16T02:31:58.179Z,66.37
2018-05-16T02:34:27.514Z,67.04
2018-05-16T02:36:56.759Z,69.33
2018-05-16T02:39:25.215Z,66.89
2018-05-16T02:41:53.722Z,69.96
2018-05-16T02:44:23.074Z,71.09
2018-05-16T02:46:52.384Z,67.66
2018-05-16T02:49:21.672Z,71.21
2018-05-16T02:51:50.123Z,69.66
2018-05-16T02:54:19.652Z,67.63
2018-05-16T02:56:48.138Z,69.20
2018-05-16T02:59:17.136Z,72.87
2018-05-16T03:01:45.610Z,73.16
2018-05-16T03:04:14.360Z,69.98
2018-05-16T03:06:43.244Z,66.57
2018-05-16T03:09:12.083Z,66.45
2018-05-16T03:11:40.585Z,69.30
2018-05-16T03:14:09.023Z,72.00
2018-05-16T03:16:37.507Z,73.08
2018-05-16T03:19:06.017Z,75.00
2018-05-16T03:21:34.525Z,74.98
2018-05-16T03:24:02.978Z,75.07
2018-05-16T03:26:31.471Z,75.41
2018-05-16T03:28:59.903Z,74.79
2018-05-16T03:31:28.359Z,75.08
2018-05-16T03:33:56.926Z,73.75
2018-05-16T03:36:29.812Z,72.76
2018-05-16T03:38:59.866Z,71.36
2018-05-16T03:41:28.336Z,69.40
2018-05-16T03:43:56.806Z,72.25
2018-05-16T03:46:25.278Z,70.64
2018-05-16T03:48:53.746Z,68.32
2018-05-16T03:51:22.243Z,72.52
2018-05-16T03:53:52.601Z,72.93
2018-05-16T03:56:21.272Z,74.49
2018-05-16T04:02:32.658Z,75.17
2018-05-16T04:05:01.157Z,77.69
2018-05-16T04:07:29.615Z,78.31
2018-05-16T04:09:58.075Z,76.57
2018-05-16T04:12:26.582Z,75.71
2018-05-16T04:14:58.096Z,77.22
2018-05-16T04:17:26.569Z,76.09
2018-05-16T04:19:55.010Z,72.79
2018-05-16T04:22:23.437Z,69.13
2018-05-16T04:24:51.911Z,67.27
2018-05-16T04:27:20.343Z,67.38
2018-05-16T04:29:50.181Z,66.79
2018-05-16T04:32:18.670Z,67.53
2018-05-16T04:34:47.145Z,71.41
2018-05-16T04:37:15.600Z,75.60
2018-05-16T04:39:44.069Z,76.14
2018-05-16T04:42:12.555Z,73.82
2018-05-16T04:44:41.134Z,74.81
2018-05-16T04:47:09.636Z,72.76
2018-05-16T04:49:38.231Z,73.51
2018-05-16T04:52:06.910Z,70.90
2018-05-16T04:54:35.421Z,71.49
2018-05-16T04:57:03.898Z,75.08
2018-05-16T04:59:33.139Z,75.49
2018-05-16T05:02:01.677Z,76.92
2018-05-16T05:04:30.153Z,78.20
2018-05-16T05:06:58.714Z,78.58
2018-05-16T05:09:27.228Z,78.26
2018-05-16T05:11:55.737Z,77.01
2018-05-16T05:14:24.202Z,76.63
2018-05-16T05:16:53.403Z,77.74
2018-05-16T05:19:21.910Z,77.10
2018-05-16T05:21:50.362Z,78.18
2018-05-16T05:24:18.921Z,76.24
2018-05-16T05:26:47.376Z,74.38
2018-05-16T05:29:16.655Z,75.62
2018-05-16T05:31:45.102Z,74.76
2018-05-16T05:34:13.736Z,73.29
2018-05-16T05:36:43.169Z,73.96
2018-05-16T05:39:11.862Z,76.26
2018-05-16T05:41:40.582Z,77.21
2018-05-16T05:44:09.084Z,74.35
2018-05-16T05:46:37.568Z,73.96
2018-05-16T05:49:06.943Z,74.57
2018-05-16T05:51:35.353Z,75.81
2018-05-16T05:54:04.012Z,76.19
2018-05-16T05:56:33.265Z,73.49
2018-05-16T05:59:01.693Z,76.11
2018-05-16T06:01:30.156Z,74.16
2018-05-16T06:03:58.709Z,73.93
2018-05-16T06:06:27.215Z,73.99
2018-05-16T06:08:55.670Z,73.96
2018-05-16T06:11:24.207Z,74.12
2018-05-16T06:13:52.721Z,75.26
2018-05-16T06:16:21.199Z,74.48
2018-05-16T06:18:49.745Z,73.79
2018-05-16T06:21:18.232Z,72.90
2018-05-16T06:23:46.728Z,72.66
2018-05-16T06:26:15.174Z,72.77
2018-05-16T06:28:43.722Z,72.69
2018-05-16T06:31:12.191Z,73.41
2018-05-16T06:33:40.780Z,71.80
2018-05-16T06:36:09.282Z,72.57
2018-05-16T06:38:37.717Z,71.91
2018-05-16T06:41:06.322Z,72.49
2018-05-16T06:43:34.784Z,72.35
2018-05-16T06:46:03.230Z,71.16
2018-05-16T06:48:31.798Z,71.11
2018-05-16T06:51:00.287Z,71.44
2018-05-16T06:53:28.766Z,71.49
2018-05-16T06:55:57.215Z,71.70
2018-05-16T06:58:25.697Z,71.46
2018-05-16T07:00:55.046Z,70.81
2018-05-16T07:03:23.576Z,71.07
2018-05-16T07:05:52.160Z,71.12
2018-05-16T07:08:21.412Z,70.96
2018-05-16T07:10:51.035Z,70.77
2018-05-16T07:13:19.523Z,70.53
2018-05-16T07:15:49.081Z,70.20
2018-05-16T07:18:17.660Z,70.47
2018-05-16T07:20:46.210Z,69.51
2018-05-16T07:23:14.679Z,69.18
2018-05-16T07:25:43.236Z,69.96
2018-05-16T07:28:12.061Z,69.58
2018-05-16T07:30:41.378Z,68.60
2018-05-16T07:33:09.823Z,68.73
2018-05-16T07:35:38.299Z,68.74
2018-05-16T07:38:07.554Z,68.34
2018-05-16T07:40:37.884Z,69.71
2018-05-16T07:43:07.086Z,69.51
2018-05-16T07:45:36.295Z,67.65
2018-05-16T07:48:04.836Z,68.43
2018-05-16T07:50:34.088Z,67.67
2018-05-16T07:53:02.554Z,68.42
2018-05-16T07:55:31.818Z,66.66
2018-05-16T07:58:00.379Z,66.67
2018-05-16T08:00:28.832Z,66.79
2018-05-16T08:02:57.311Z,66.77
2018-05-16T08:05:26.571Z,68.08
2018-05-16T08:07:55.054Z,66.60
2018-05-16T08:10:23.570Z,66.46
2018-05-16T08:12:52.000Z,66.40
2018-05-16T08:15:20.488Z,66.06
2018-05-16T08:17:49.028Z,66.21
2018-05-16T08:20:17.556Z,66.22
2018-05-16T08:22:46.766Z,66.89
2018-05-16T08:25:15.310Z,66.36
2018-05-16T08:27:43.870Z,66.15
2018-05-16T08:30:12.371Z,66.21
2018-05-16T08:32:40.857Z,65.26
2018-05-16T08:35:09.306Z,64.77
2018-05-16T08:37:37.823Z,64.69
2018-05-16T08:40:07.036Z,64.84
2018-05-16T08:42:35.492Z,64.97
2018-05-16T08:45:03.929Z,64.40
2018-05-16T08:47:32.412Z,63.10
2018-05-16T08:50:00.893Z,63.87
2018-05-16T08:52:29.399Z,62.94
2018-05-16T08:54:57.843Z,63.93
2018-05-16T08:57:26.287Z,62.73
2018-05-16T08:59:55.532Z,63.64
2018-05-16T09:02:23.978Z,62.95
2018-05-16T09:04:52.529Z,61.95
2018-05-16T09:07:21.758Z,62.70
2018-05-16T09:09:50.258Z,61.40
2018-05-16T09:12:18.783Z,60.58
2018-05-16T09:14:47.286Z,60.52
2018-05-16T09:17:15.800Z,59.62
2018-05-16T09:19:44.973Z,60.73
2018-05-16T09:22:13.436Z,59.67
2018-05-16T09:24:42.191Z,59.72
2018-05-16T09:27:10.667Z,59.38
2018-05-16T09:29:39.144Z,58.86
2018-05-16T09:32:07.607Z,59.22
2018-05-16T09:34:36.101Z,57.77
2018-05-16T09:37:04.588Z,56.75
2018-05-16T09:39:33.069Z,57.03
2018-05-16T09:42:01.555Z,56.88
2018-05-16T09:44:30.785Z,57.83
2018-05-16T09:47:00.053Z,57.53
2018-05-16T09:49:28.508Z,57.62
2018-05-16T09:51:57.781Z,56.92
2018-05-16T09:54:26.255Z,57.46
2018-05-16T09:56:54.748Z,57.65
2018-05-16T09:59:24.028Z,57.54
2018-05-16T10:01:52.460Z,56.59
2018-05-16T10:04:20.910Z,57.01
2018-05-16T10:06:49.458Z,57.52
2018-05-16T10:09:17.934Z,57.30
2018-05-16T10:11:46.583Z,57.21
2018-05-16T10:14:15.213Z,57.33
2018-05-16T10:19:26.816Z,58.45
2018-05-16T10:21:55.365Z,58.85
2018-05-16T10:24:24.588Z,58.84
2018-05-16T10:26:53.121Z,60.81
2018-05-16T10:29:28.937Z,59.61
2018-05-16T10:31:57.812Z,58.26
2018-05-16T10:34:27.050Z,58.24
2018-05-16T10:36:55.756Z,59.72
2018-05-16T10:39:24.995Z,60.14
2018-05-16T10:41:53.479Z,59.07
2018-05-16T10:44:22.785Z,58.34
2018-05-16T10:46:51.275Z,57.67
2018-05-16T10:49:19.769Z,58.34
2018-05-16T10:51:48.282Z,57.94
2018-05-16T10:54:16.783Z,59.05
2018-05-16T10:56:46.985Z,59.18
2018-05-16T10:59:16.299Z,59.29
2018-05-16T11:01:44.787Z,60.34
2018-05-16T11:04:14.684Z,59.78
2018-05-16T11:06:43.146Z,58.05
2018-05-16T11:09:11.691Z,57.82
2018-05-16T11:11:40.203Z,57.79
2018-05-16T11:14:08.887Z,59.13
2018-05-16T11:16:37.206Z,58.15
2018-05-16T11:19:05.687Z,57.19
2018-05-16T11:21:34.965Z,58.60
2018-05-16T11:24:03.439Z,57.32
2018-05-16T11:26:38.440Z,59.47
2018-05-16T11:29:06.900Z,58.55
2018-05-16T11:31:36.121Z,59.12
2018-05-16T11:34:05.390Z,58.33
2018-05-16T11:36:33.922Z,58.71
2018-05-16T11:39:02.406Z,59.05
2018-05-16T11:41:30.866Z,58.75
2018-05-16T11:44:00.104Z,58.57
2018-05-16T11:46:28.559Z,59.95
2018-05-16T11:48:57.082Z,58.92
2018-05-16T11:51:25.515Z,59.35
2018-05-16T11:53:54.072Z,59.48
2018-05-16T11:56:22.603Z,60.55
2018-05-16T11:58:51.906Z,60.43
2018-05-16T12:01:20.436Z,61.32
2018-05-16T12:03:49.646Z,61.71
2018-05-16T12:06:18.779Z,64.53
2018-05-16T12:08:47.254Z,64.93
2018-05-16T12:11:15.727Z,65.81
2018-05-16T12:13:44.161Z,66.04
2018-05-16T12:16:12.581Z,66.27
2018-05-16T12:18:41.043Z,66.99
2018-05-16T12:21:09.530Z,68.28
2018-05-16T12:23:37.977Z,68.28
2018-05-16T12:26:06.438Z,68.67
2018-05-16T12:28:35.748Z,67.45
2018-05-16T12:31:04.214Z,66.78
2018-05-16T12:33:33.350Z,67.61
2018-05-16T12:36:02.690Z,65.24
2018-05-16T12:38:31.170Z,65.63
2018-05-16T12:40:59.654Z,65.14
2018-05-16T12:43:32.517Z,65.23
2018-05-16T12:46:00.974Z,64.25
2018-05-16T12:48:30.056Z,63.93
2018-05-16T12:50:59.442Z,62.89
2018-05-16T12:53:27.888Z,63.66
2018-05-16T12:55:56.324Z,62.60
2018-05-16T12:58:24.786Z,61.55
2018-05-16T13:00:55.161Z,61.05
2018-05-16T13:03:35.539Z,60.38
2018-05-16T13:06:04.071Z,60.31
2018-05-16T13:08:32.645Z,62.21
2018-05-16T13:11:04.563Z,60.75
2018-05-16T13:13:35.063Z,63.38
2018-05-16T13:16:15.143Z,61.92
2018-05-16T13:18:44.660Z,60.73
2018-05-16T13:21:13.172Z,60.94
2018-05-16T13:23:41.669Z,60.83
2018-05-16T13:26:10.427Z,60.98
2018-05-16T13:28:38.903Z,60.79
2018-05-16T13:31:07.344Z,60.42
2018-05-16T13:33:36.660Z,60.05
2018-05-16T13:36:05.143Z,61.09
2018-05-16T13:38:33.577Z,60.40
2018-05-16T13:41:02.142Z,61.81
2018-05-16T13:43:30.590Z,62.19
2018-05-16T13:45:59.801Z,62.00
2018-05-16T13:48:28.295Z,63.29
2018-05-16T13:50:56.761Z,65.61
2018-05-16T13:53:25.356Z,64.17
2018-05-16T13:55:53.852Z,62.85
2018-05-16T13:58:22.295Z,61.94
2018-05-16T14:00:54.172Z,62.10
2018-05-16T14:03:22.691Z,67.37
2018-05-16T14:05:51.126Z,67.52
2018-05-16T14:08:19.609Z,67.46
2018-05-16T14:10:48.068Z,65.96
2018-05-16T14:13:16.591Z,65.79
2018-05-16T14:15:45.088Z,64.25
2018-05-16T14:18:13.662Z,64.42
2018-05-16T14:20:42.219Z,66.75
2018-05-16T14:23:10.751Z,65.71
2018-05-16T14:25:39.565Z,64.84
2018-05-16T14:28:08.099Z,64.38
2018-05-16T14:30:37.359Z,63.19
2018-05-16T14:33:05.930Z,62.60
2018-05-16T14:35:34.370Z,62.72
2018-05-16T14:38:02.884Z,63.33
2018-05-16T14:40:31.366Z,63.71
2018-05-16T14:43:05.169Z,63.54
2018-05-16T14:45:33.925Z,62.15
2018-05-16T14:48:02.362Z,62.10
2018-05-16T14:50:32.843Z,61.08
2018-05-16T14:53:01.358Z,60.65
2018-05-16T14:55:29.855Z,62.36
2018-05-16T14:57:58.271Z,61.52
2018-05-16T15:00:26.725Z,60.15
2018-05-16T15:02:56.975Z,62.47
2018-05-16T15:05:25.463Z,62.35
2018-05-16T15:07:53.955Z,62.32
2018-05-16T15:10:23.336Z,61.58
2018-05-16T15:12:51.847Z,62.80
2018-05-16T15:15:20.425Z,61.64
2018-05-16T15:17:48.971Z,60.60
2018-05-16T15:20:17.528Z,60.53
2018-05-16T15:22:45.958Z,60.78
2018-05-16T15:25:14.427Z,60.26
2018-05-16T15:27:42.852Z,59.87
2018-05-16T15:30:11.376Z,60.58
2018-05-16T15:32:44.069Z,60.70
2018-05-16T15:35:12.587Z,60.40
2018-05-16T15:37:41.132Z,61.06
2018-05-16T15:40:09.638Z,60.61
2018-05-16T15:42:38.066Z,60.58
2018-05-16T15:45:06.578Z,60.08
2018-05-16T15:47:35.132Z,61.66
2018-05-16T15:50:03.594Z,62.09
2018-05-16T15:52:32.078Z,61.78
2018-05-16T15:55:01.291Z,61.78
2018-05-16T15:57:29.728Z,61.39
2018-05-16T15:59:58.144Z,61.51
2018-05-16T16:02:26.697Z,60.12
2018-05-16T16:04:56.752Z,59.32
2018-05-16T16:07:25.247Z,58.89
2018-05-16T16:09:59.355Z,58.39
2018-05-16T16:12:27.877Z,57.13
2018-05-16T16:14:56.313Z,57.86
2018-05-16T16:17:24.746Z,58.18
2018-05-16T16:19:53.262Z,59.08
2018-05-16T16:22:21.706Z,58.50
2018-05-16T16:24:54.971Z,59.80
2018-05-16T16:27:23.422Z,59.19
2018-05-16T16:29:52.086Z,59.90
2018-05-16T16:32:21.443Z,59.24
2018-05-16T16:34:51.047Z,59.47
2018-05-16T16:37:19.523Z,61.12
2018-05-16T16:39:47.955Z,60.80
2018-05-16T16:42:17.213Z,62.55
2018-05-16T16:44:45.747Z,65.69
2018-05-16T16:47:14.950Z,71.23
2018-05-16T16:49:44.329Z,71.96
2018-05-16T16:52:15.174Z,72.66
2018-05-16T16:54:43.883Z,71.75
2018-05-16T16:57:12.985Z,66.17
2018-05-16T16:59:41.915Z,73.38
2018-05-16T17:02:10.582Z,72.82
2018-05-16T17:04:39.077Z,70.00
2018-05-16T17:07:07.545Z,68.68
2018-05-16T17:09:36.031Z,66.87
2018-05-16T17:12:04.496Z,65.15
2018-05-16T17:14:32.997Z,64.99
2018-05-16T17:17:01.531Z,65.07
2018-05-16T17:19:30.019Z,74.45
2018-05-16T17:21:58.679Z,72.80
2018-05-16T17:24:28.278Z,72.35
2018-05-16T17:26:57.419Z,71.48
2018-05-16T17:29:27.763Z,76.14
2018-05-16T17:31:57.400Z,73.21
2018-05-16T17:34:26.654Z,70.88
2018-05-16T17:36:55.540Z,71.26
2018-05-16T17:39:24.165Z,67.56
2018-05-16T17:41:53.398Z,76.33
2018-05-16T17:44:22.587Z,74.98
2018-05-16T17:46:52.794Z,72.34
2018-05-16T17:49:22.825Z,72.31
2018-05-16T17:51:52.232Z,75.82
2018-05-16T17:54:21.593Z,79.37
2018-05-16T17:56:51.135Z,79.03
2018-05-16T17:59:20.508Z,78.00
2018-05-16T18:01:49.792Z,79.29
2018-05-16T18:04:19.107Z,76.77
2018-05-16T18:06:48.503Z,76.97
2018-05-16T18:09:18.301Z,77.21
2018-05-16T18:11:47.945Z,77.56
2018-05-16T18:14:34.990Z,76.37
2018-05-16T18:17:21.628Z,75.58
2018-05-16T18:19:51.305Z,76.73
2018-05-16T18:22:20.950Z,75.27
2018-05-16T18:24:56.756Z,72.16
2018-05-16T18:27:26.391Z,70.01
2018-05-16T18:29:56.190Z,72.53
2018-05-16T18:32:25.826Z,74.00
2018-05-16T18:34:56.183Z,76.52
2018-05-16T18:37:25.882Z,77.76
2018-05-16T18:39:55.682Z,77.78
2018-05-16T18:42:25.470Z,76.98
2018-05-16T18:45:00.847Z,75.11
2018-05-16T18:47:31.230Z,73.66
2018-05-16T18:50:01.550Z,72.52
2018-05-16T18:52:31.283Z,73.66
2018-05-16T18:55:01.092Z,71.78
2018-05-16T18:57:30.765Z,72.34
2018-05-16T19:00:01.288Z,70.14
2018-05-16T19:02:30.916Z,69.14
2018-05-16T19:05:00.812Z,69.12
2018-05-16T19:07:31.218Z,75.40
2018-05-16T19:10:00.993Z,76.69
2018-05-16T19:12:30.777Z,77.58
2018-05-16T19:15:00.612Z,78.00
2018-05-16T19:17:30.361Z,74.72
2018-05-16T19:20:00.340Z,73.29
2018-05-16T19:22:30.006Z,70.76
2018-05-16T19:24:59.816Z,72.80
2018-05-16T19:27:30.165Z,74.04
2018-05-16T19:30:00.825Z,73.31
2018-05-16T19:32:30.492Z,70.89
2018-05-16T19:35:00.220Z,70.77
2018-05-16T19:37:30.064Z,77.61
2018-05-16T19:39:59.782Z,77.88
2018-05-16T19:42:29.331Z,80.64
2018-05-16T19:44:58.985Z,80.00
2018-05-16T19:47:28.826Z,79.92
2018-05-16T19:49:58.474Z,79.67
2018-05-16T19:52:28.112Z,79.35
2018-05-16T19:54:58.705Z,78.52
2018-05-16T19:57:29.279Z,77.79
2018-05-16T19:59:59.027Z,76.20
2018-05-16T20:02:28.874Z,76.12
2018-05-16T20:04:58.675Z,76.64
2018-05-16T20:07:28.554Z,76.96
2018-05-16T20:10:02.536Z,76.34
2018-05-16T20:12:32.184Z,75.64
2018-05-16T20:15:01.881Z,75.69
2018-05-16T20:17:32.426Z,75.28
2018-05-16T20:20:02.194Z,74.15
2018-05-16T20:22:31.648Z,74.26
2018-05-16T20:25:01.471Z,76.17
2018-05-16T20:27:31.245Z,75.97
2018-05-16T20:30:00.923Z,76.20
2018-05-16T20:32:31.265Z,75.36
2018-05-16T20:35:01.888Z,75.65
2018-05-16T20:37:31.530Z,74.56
2018-05-16T20:40:01.186Z,73.83
2018-05-16T20:42:30.157Z,74.58
2018-05-16T20:44:59.252Z,74.33
2018-05-16T20:47:27.956Z,74.42
2018-05-16T20:49:56.471Z,75.13
2018-05-16T20:52:26.771Z,74.14
2018-05-16T20:54:55.323Z,74.85
2018-05-16T20:57:23.854Z,73.27
2018-05-16T20:59:52.763Z,73.82
2018-05-16T21:02:21.407Z,75.52
2018-05-16T21:04:49.903Z,74.24
2018-05-16T21:07:18.402Z,73.46
2018-05-16T21:09:50.446Z,74.10
2018-05-16T21:12:18.949Z,73.07
2018-05-16T21:14:47.422Z,73.97
2018-05-16T21:17:15.915Z,74.71
2018-05-16T21:19:44.389Z,74.73
2018-05-16T21:22:12.853Z,74.21
2018-05-16T21:24:42.093Z,75.10
2018-05-16T21:27:11.662Z,74.49
2018-05-16T21:29:40.150Z,73.31
2018-05-16T21:32:08.660Z,73.56
2018-05-16T21:34:37.368Z,73.77
2018-05-16T21:37:06.862Z,72.16
2018-05-16T21:39:35.432Z,73.81
2018-05-16T21:42:04.938Z,73.77
2018-05-16T21:44:34.422Z,73.59
2018-05-16T21:47:02.984Z,74.98
2018-05-16T21:49:31.487Z,73.04
2018-05-16T21:52:00.161Z,73.24
2018-05-16T21:54:28.642Z,72.64
2018-05-16T21:56:57.121Z,71.63
2018-05-16T21:59:25.628Z,74.53
2018-05-16T22:01:54.104Z,73.93
2018-05-16T22:04:22.600Z,73.67
2018-05-16T22:06:51.260Z,74.60
2018-05-16T22:09:19.773Z,73.65
2018-05-16T22:11:48.237Z,73.86
2018-05-16T22:14:16.755Z,73.93
2018-05-16T22:16:45.250Z,73.20
2018-05-16T22:19:13.743Z,74.44
2018-05-16T22:21:42.226Z,73.77
2018-05-16T22:24:10.976Z,74.26
2018-05-16T22:26:39.453Z,73.21
2018-05-16T22:29:07.954Z,73.49
2018-05-16T22:31:42.570Z,73.49
2018-05-16T22:34:17.707Z,75.52
2018-05-16T22:36:51.884Z,77.29
2018-05-16T22:39:25.810Z,77.45
2018-05-16T22:41:59.769Z,75.84
2018-05-16T22:44:33.564Z,76.73
2018-05-16T22:47:02.030Z,77.36
2018-05-16T22:49:30.497Z,74.19
2018-05-16T22:51:58.937Z,74.95
2018-05-16T22:54:28.285Z,75.43
2018-05-16T22:56:56.854Z,74.30
2018-05-16T22:59:25.532Z,75.07
2018-05-16T23:01:54.218Z,73.68
2018-05-16T23:04:22.680Z,73.49
2018-05-16T23:06:51.616Z,73.45
2018-05-16T23:09:20.643Z,73.32
2018-05-16T23:11:49.777Z,73.49
2018-05-16T23:14:19.042Z,74.93
2018-05-16T23:16:47.550Z,73.76
2018-05-16T23:19:16.426Z,74.05
2018-05-16T23:21:44.901Z,73.36
2018-05-16T23:24:13.370Z,74.41
2018-05-16T23:26:41.939Z,74.21
2018-05-16T23:29:10.416Z,73.63
2018-05-16T23:31:38.920Z,75.69
2018-05-16T23:34:07.407Z,75.78
2018-05-16T23:36:35.864Z,75.03
2018-05-16T23:39:04.406Z,72.76
2018-05-16T23:41:33.025Z,73.17
2018-05-16T23:44:01.849Z,72.79
2018-05-16T23:46:30.306Z,71.80
2018-05-16T23:48:59.330Z,72.36
2018-05-16T23:51:27.805Z,72.24
2018-05-16T23:53:56.297Z,70.56
2018-05-16T23:56:24.785Z,71.84
2018-05-16T23:58:53.457Z,71.77
